createdAt,value
2023-01-10T00:00:50.084Z,5.10
2023-01-10T00:03:17.432Z,5.10
2023-01-10T00:05:44.238Z,5.20
2023-01-10T00:08:15.555Z,5.20
2023-01-10T00:10:42.356Z,5.30
2023-01-10T00:13:26.455Z,5.30
2023-01-10T00:15:55.015Z,5.40
2023-01-10T00:18:22.379Z,5.40
2023-01-10T00:20:49.661Z,5.40
2023-01-10T00:23:17.331Z,5.40
2023-01-10T00:25:44.072Z,5.50
2023-01-10T00:28:20.334Z,5.50
2023-01-10T00:31:01.626Z,5.60
2023-01-10T00:33:31.824Z,5.60
2023-01-10T00:35:59.420Z,5.60
2023-01-10T00:38:26.283Z,5.60
2023-01-10T00:40:53.036Z,5.60
2023-01-10T00:43:54.885Z,5.60
2023-01-10T00:46:22.097Z,5.40
2023-01-10T00:48:48.776Z,5.50
2023-01-10T00:51:15.556Z,5.50
2023-01-10T00:53:42.263Z,5.50
2023-01-10T00:56:08.929Z,5.50
2023-01-10T00:58:35.742Z,5.50
2023-01-10T01:01:02.591Z,5.60
2023-01-10T01:03:29.503Z,5.60
2023-01-10T01:05:56.200Z,5.60
2023-01-10T01:08:22.960Z,5.70
2023-01-10T01:10:49.813Z,5.70
2023-01-10T01:13:20.352Z,5.80
2023-01-10T01:15:48.593Z,5.80
2023-01-10T01:18:18.487Z,5.80
2023-01-10T01:20:48.189Z,5.90
2023-01-10T01:23:15.528Z,5.80
2023-01-10T01:25:42.618Z,5.90
2023-01-10T01:28:13.541Z,5.80
2023-01-10T01:30:40.352Z,5.90
2023-01-10T01:33:07.634Z,5.90
2023-01-10T01:35:34.722Z,5.90
2023-01-10T01:38:01.498Z,6.00
2023-01-10T01:40:28.249Z,6.00
2023-01-10T01:42:57.818Z,6.00
2023-01-10T01:45:24.495Z,6.00
2023-01-10T01:47:57.122Z,6.00
2023-01-10T01:50:42.396Z,6.00
2023-01-10T01:53:18.655Z,6.00
2023-01-10T01:55:47.103Z,6.00
2023-01-10T01:58:19.851Z,6.00
2023-01-10T02:00:46.768Z,6.00
2023-01-10T02:03:14.524Z,6.00
2023-01-10T02:05:47.212Z,5.90
2023-01-10T02:08:14.503Z,5.90
2023-01-10T02:10:48.879Z,5.90
2023-01-10T02:13:18.187Z,5.80
2023-01-10T02:15:45.150Z,5.80
2023-01-10T02:18:12.468Z,5.80
2023-01-10T02:20:54.909Z,5.70
2023-01-10T02:23:24.610Z,5.70
2023-01-10T02:26:15.303Z,5.60
2023-01-10T02:29:03.793Z,5.60
2023-01-10T02:31:39.718Z,5.60
2023-01-10T02:34:20.626Z,5.60
2023-01-10T02:37:19.429Z,5.60
2023-01-10T02:40:04.082Z,5.60
2023-01-10T02:42:47.072Z,5.60
2023-01-10T02:45:31.194Z,5.60
2023-01-10T02:47:58.150Z,5.50
2023-01-10T02:50:37.099Z,5.50
2023-01-10T02:53:10.788Z,5.50
2023-01-10T02:56:05.650Z,5.60
2023-01-10T02:58:57.282Z,5.60
2023-01-10T03:01:59.434Z,5.50
2023-01-10T03:04:55.244Z,5.50
2023-01-10T03:07:49.314Z,5.40
2023-01-10T03:10:22.031Z,5.30
2023-01-10T03:12:58.270Z,5.30
2023-01-10T03:15:29.309Z,5.30
2023-01-10T03:18:01.028Z,5.30
2023-01-10T03:20:32.153Z,5.30
2023-01-10T03:23:01.438Z,5.30
2023-01-10T03:25:35.380Z,5.40
2023-01-10T03:28:16.912Z,5.40
2023-01-10T03:30:54.280Z,5.50
2023-01-10T03:33:27.516Z,5.50
2023-01-10T03:36:09.808Z,5.50
2023-01-10T03:38:52.204Z,5.50
2023-01-10T03:41:59.262Z,5.50
2023-01-10T03:44:46.590Z,5.60
2023-01-10T03:47:37.858Z,5.60
2023-01-10T03:50:10.507Z,5.40
2023-01-10T03:52:39.437Z,5.40
2023-01-10T03:55:08.384Z,5.50
2023-01-10T03:57:35.150Z,5.50
2023-01-10T04:00:01.998Z,5.60
2023-01-10T04:02:32.323Z,5.60
2023-01-10T04:04:59.579Z,5.70
2023-01-10T04:07:27.120Z,5.80
2023-01-10T04:09:54.148Z,5.70
2023-01-10T04:12:21.011Z,5.70
2023-01-10T04:14:47.992Z,5.80
2023-01-10T04:17:16.488Z,5.70
2023-01-10T04:19:43.730Z,5.70
2023-01-10T04:22:11.484Z,5.70
2023-01-10T04:24:38.983Z,5.80
2023-01-10T04:27:06.094Z,5.80
2023-01-10T04:29:32.901Z,5.80
2023-01-10T04:31:59.629Z,5.80
2023-01-10T04:34:26.426Z,5.70
2023-01-10T04:36:53.116Z,5.70
2023-01-10T04:39:20.019Z,5.80
2023-01-10T04:41:46.801Z,5.80
2023-01-10T04:44:14.026Z,5.80
2023-01-10T04:46:40.815Z,5.80
2023-01-10T04:49:08.956Z,5.90
2023-01-10T04:51:35.804Z,5.90
2023-01-10T04:54:02.558Z,5.90
2023-01-10T04:56:29.341Z,5.90
2023-01-10T04:58:56.597Z,5.90
2023-01-10T05:01:25.660Z,5.90
2023-01-10T05:03:55.328Z,5.90
2023-01-10T05:06:23.342Z,5.90
2023-01-10T05:08:50.275Z,5.90
2023-01-10T05:11:17.083Z,5.90
2023-01-10T05:13:44.011Z,5.90
2023-01-10T05:16:10.889Z,5.90
2023-01-10T05:18:37.655Z,6.00
2023-01-10T05:21:07.525Z,5.90
2023-01-10T05:23:34.678Z,5.90
2023-01-10T05:26:10.329Z,6.00
2023-01-10T05:28:38.266Z,6.00
2023-01-10T05:31:09.901Z,6.00
2023-01-10T05:33:36.638Z,6.00
2023-01-10T05:36:05.999Z,6.00
2023-01-10T05:38:33.694Z,6.00
2023-01-10T05:41:00.893Z,5.90
2023-01-10T05:43:28.014Z,5.80
2023-01-10T05:45:55.144Z,5.80
2023-01-10T05:48:22.448Z,5.70
2023-01-10T05:50:52.937Z,5.70
2023-01-10T05:53:20.617Z,5.70
2023-01-10T05:55:58.475Z,5.70
2023-01-10T05:58:26.001Z,5.60
2023-01-10T06:00:54.433Z,5.70
2023-01-10T06:03:21.149Z,5.70
2023-01-10T06:05:49.059Z,5.70
2023-01-10T06:08:16.200Z,5.70
2023-01-10T06:10:43.446Z,5.70
2023-01-10T06:13:10.251Z,5.60
2023-01-10T06:15:37.238Z,5.60
2023-01-10T06:18:04.397Z,5.60
2023-01-10T06:20:31.466Z,5.60
2023-01-10T06:22:58.807Z,5.60
2023-01-10T06:25:25.608Z,5.60
2023-01-10T06:27:52.435Z,5.60
2023-01-10T06:30:19.223Z,5.60
2023-01-10T06:32:46.034Z,5.50
2023-01-10T06:35:12.855Z,5.40
2023-01-10T06:37:39.687Z,5.40
2023-01-10T06:40:07.123Z,5.30
2023-01-10T06:42:33.867Z,5.30
2023-01-10T06:45:00.829Z,5.20
2023-01-10T06:47:27.571Z,5.20
2023-01-10T06:49:54.430Z,5.30
2023-01-10T06:52:21.248Z,5.40
2023-01-10T06:54:51.943Z,5.40
2023-01-10T06:57:21.007Z,5.40
2023-01-10T06:59:47.763Z,5.40
2023-01-10T07:02:15.015Z,5.40
2023-01-10T07:04:41.817Z,5.30
2023-01-10T07:07:08.657Z,5.30
2023-01-10T07:09:35.385Z,5.30
2023-01-10T07:12:02.164Z,5.20
2023-01-10T07:14:28.932Z,5.10
2023-01-10T07:16:55.692Z,5.10
2023-01-10T07:19:25.531Z,5.00
2023-01-10T07:21:52.275Z,5.00
2023-01-10T07:24:21.268Z,5.00
2023-01-10T07:26:48.109Z,5.00
2023-01-10T07:29:14.852Z,4.90
2023-01-10T07:31:41.653Z,4.90
2023-01-10T07:34:08.466Z,4.90
2023-01-10T07:36:39.181Z,4.90
2023-01-10T07:39:06.418Z,4.90
2023-01-10T07:41:33.261Z,4.90
2023-01-10T07:44:00.064Z,4.90
2023-01-10T07:46:26.915Z,5.00
2023-01-10T07:48:53.736Z,5.00
2023-01-10T07:51:24.116Z,5.00
2023-01-10T07:53:50.938Z,5.00
2023-01-10T07:56:17.607Z,5.00
2023-01-10T07:58:46.389Z,5.00
2023-01-10T08:01:13.177Z,5.00
2023-01-10T08:03:40.407Z,5.10
2023-01-10T08:06:11.127Z,5.10
2023-01-10T08:08:38.830Z,5.10
2023-01-10T08:11:06.071Z,5.20
2023-01-10T08:13:33.187Z,5.20
2023-01-10T08:16:00.434Z,5.20
2023-01-10T08:18:27.872Z,5.20
2023-01-10T08:20:55.485Z,5.20
2023-01-10T08:23:22.476Z,5.30
2023-01-10T08:25:51.625Z,5.30
2023-01-10T08:28:18.564Z,5.40
2023-01-10T08:30:45.541Z,5.30
2023-01-10T08:33:12.583Z,5.40
2023-01-10T09:07:48.337Z,5.90
2023-01-10T09:10:15.233Z,5.90
2023-01-10T09:12:57.036Z,6.00
2023-01-10T09:15:32.234Z,6.00
2023-01-10T09:18:01.586Z,6.00
2023-01-10T09:20:29.666Z,6.00
2023-01-10T09:22:57.455Z,5.90
2023-01-10T09:25:25.057Z,6.00
2023-01-10T09:27:59.735Z,6.10
2023-01-10T09:30:27.802Z,6.10
2023-01-10T09:32:55.984Z,6.20
2023-01-10T09:35:24.296Z,6.30
2023-01-10T09:37:54.339Z,6.40
2023-01-10T09:40:33.295Z,6.50
2023-01-10T09:43:54.672Z,6.60
2023-01-10T09:46:42.968Z,6.80
2023-01-10T09:49:21.571Z,6.90
2023-01-10T09:51:50.816Z,7.00
2023-01-10T09:54:30.240Z,7.10
2023-01-10T09:57:00.381Z,7.20
2023-01-10T09:59:38.547Z,7.20
2023-01-10T10:02:34.929Z,7.30
2023-01-10T10:05:24.640Z,7.30
2023-01-10T10:07:56.153Z,7.40
2023-01-10T10:10:43.273Z,7.50
2023-01-10T10:13:49.941Z,7.50
2023-01-10T10:16:36.640Z,7.60
2023-01-10T10:19:15.436Z,7.60
2023-01-10T10:22:07.066Z,7.40
2023-01-10T10:25:06.386Z,7.50
2023-01-10T10:27:51.475Z,7.50
2023-01-10T10:30:55.892Z,7.50
2023-01-10T10:33:49.026Z,7.50
2023-01-10T10:36:24.578Z,7.60
2023-01-10T10:38:53.385Z,7.60
2023-01-10T10:41:40.411Z,7.60
2023-01-10T10:44:40.000Z,7.60
2023-01-10T10:47:15.480Z,7.60
2023-01-10T10:50:07.246Z,7.60
2023-01-10T10:52:36.250Z,7.60
2023-01-10T10:55:05.848Z,7.70
2023-01-10T10:57:38.564Z,7.60
2023-01-10T11:00:07.468Z,7.70
2023-01-10T11:02:43.542Z,7.80
2023-01-10T11:05:31.898Z,7.80
2023-01-10T11:08:04.041Z,7.80
2023-01-10T11:10:34.895Z,7.80
2023-01-10T11:13:17.157Z,7.80
2023-01-10T11:15:49.155Z,7.90
2023-01-10T11:18:21.167Z,8.00
2023-01-10T11:21:04.770Z,8.10
2023-01-10T11:23:40.653Z,8.10
2023-01-10T11:26:21.080Z,8.10
2023-01-10T11:28:48.077Z,8.00
2023-01-10T11:31:15.422Z,7.80
2023-01-10T11:33:42.706Z,7.70
2023-01-10T11:36:13.050Z,7.80
2023-01-10T11:38:40.216Z,7.80
2023-01-10T11:41:25.011Z,7.90
2023-01-10T11:43:51.791Z,7.90
2023-01-10T11:46:21.932Z,7.90
2023-01-10T11:49:08.858Z,7.80
2023-01-10T11:51:39.458Z,7.80
2023-01-10T11:54:11.711Z,7.80
2023-01-10T11:56:43.405Z,7.80
2023-01-10T11:59:14.945Z,7.80
2023-01-10T12:02:02.066Z,7.70
2023-01-10T12:04:33.929Z,7.70
2023-01-10T12:07:09.263Z,7.70
2023-01-10T12:09:53.852Z,7.60
2023-01-10T12:12:23.459Z,7.60
2023-01-10T12:14:51.876Z,7.60
2023-01-10T12:17:33.895Z,7.60
2023-01-10T12:20:03.130Z,7.60
2023-01-10T12:22:45.624Z,7.50
2023-01-10T12:25:27.573Z,7.50
2023-01-10T12:27:56.411Z,7.50
2023-01-10T12:30:43.699Z,7.50
2023-01-10T12:33:25.376Z,7.60
2023-01-10T12:36:19.192Z,7.70
2023-01-10T12:39:05.070Z,7.60
2023-01-10T12:42:09.330Z,7.60
2023-01-10T12:44:37.609Z,7.60
2023-01-10T12:47:28.523Z,7.50
2023-01-10T12:49:57.652Z,7.30
2023-01-10T12:52:42.980Z,7.30
2023-01-10T12:55:15.285Z,7.40
2023-01-10T12:57:44.480Z,7.40
2023-01-10T13:00:29.517Z,7.40
2023-01-10T13:03:00.628Z,7.40
2023-01-10T13:05:29.484Z,7.40
2023-01-10T13:08:03.079Z,7.40
2023-01-10T13:10:31.094Z,7.40
2023-01-10T13:13:20.390Z,7.40
2023-01-10T13:15:57.249Z,7.50
2023-01-10T13:18:27.850Z,7.40
2023-01-10T13:21:08.911Z,7.30
2023-01-10T13:23:53.335Z,7.30
2023-01-10T13:26:20.188Z,7.40
2023-01-10T13:28:58.379Z,7.40
2023-01-10T13:31:26.563Z,7.40
2023-01-10T13:34:01.298Z,7.30
2023-01-10T13:36:37.940Z,7.30
2023-01-10T13:39:09.045Z,7.20
2023-01-10T13:42:30.550Z,7.30
2023-01-10T13:45:10.194Z,7.30
2023-01-10T13:47:39.900Z,7.30
2023-01-10T13:50:34.728Z,7.40
2023-01-10T13:53:02.166Z,7.30
2023-01-10T13:55:32.800Z,7.40
2023-01-10T13:58:05.395Z,7.40
2023-01-10T14:00:53.746Z,7.40
2023-01-10T14:03:39.538Z,7.40
2023-01-10T14:06:28.364Z,7.40
2023-01-10T14:08:56.714Z,7.40
2023-01-10T14:11:27.568Z,7.50
2023-01-10T14:13:58.005Z,7.50
2023-01-10T14:19:23.406Z,7.50
2023-01-10T14:21:55.064Z,7.50
2023-01-10T14:24:43.544Z,7.40
2023-01-10T14:27:17.699Z,7.50
2023-01-10T14:29:56.101Z,7.50
2023-01-10T14:32:38.394Z,7.50
2023-01-10T14:35:08.203Z,7.50
2023-01-10T14:37:43.972Z,7.40
2023-01-10T14:40:34.395Z,7.40
2023-01-10T14:43:06.697Z,7.40
2023-01-10T14:45:45.730Z,7.30
2023-01-10T14:48:27.471Z,7.30
2023-01-10T14:51:20.956Z,7.30
2023-01-10T14:53:54.730Z,7.30
2023-01-10T14:56:29.378Z,7.30
2023-01-10T14:58:56.189Z,7.20
2023-01-10T15:01:27.484Z,7.20
2023-01-10T15:03:55.166Z,7.20
2023-01-10T15:06:21.985Z,7.10
2023-01-10T15:09:00.376Z,7.10
2023-01-10T15:11:28.937Z,6.90
2023-01-10T15:14:00.787Z,6.90
2023-01-10T15:16:28.716Z,6.90
2023-01-10T15:18:56.757Z,7.00
2023-01-10T15:21:25.773Z,7.10
2023-01-10T15:23:53.396Z,7.10
2023-01-10T15:26:27.405Z,7.00
2023-01-10T15:29:13.612Z,7.00
2023-01-10T15:31:41.630Z,6.90
2023-01-10T15:34:10.915Z,6.70
2023-01-10T15:36:46.641Z,6.70
2023-01-10T15:39:21.606Z,6.70
2023-01-10T15:41:49.105Z,6.60
2023-01-10T15:44:36.463Z,6.50
2023-01-10T15:47:03.673Z,6.50
2023-01-10T15:49:30.767Z,6.40
2023-01-10T15:51:58.360Z,6.40
2023-01-10T15:54:25.068Z,6.30
2023-01-10T15:56:59.684Z,6.20
2023-01-10T15:59:40.055Z,6.20
2023-01-10T16:02:19.305Z,6.10
2023-01-10T16:04:46.611Z,6.00
2023-01-10T16:07:22.755Z,5.90
2023-01-10T16:10:02.613Z,5.80
2023-01-10T16:12:55.105Z,5.80
2023-01-10T16:15:27.724Z,5.70
2023-01-10T16:17:54.715Z,5.60
2023-01-10T16:20:26.296Z,5.60
2023-01-10T16:22:53.929Z,5.50
2023-01-10T16:25:26.615Z,5.50
2023-01-10T16:27:56.211Z,5.50
2023-01-10T16:30:28.391Z,5.40
2023-01-10T16:32:57.297Z,5.40
2023-01-10T16:35:24.652Z,5.30
2023-01-10T16:37:56.807Z,5.20
2023-01-10T16:40:36.614Z,5.20
2023-01-10T16:43:18.662Z,5.20
2023-01-10T16:46:00.182Z,5.20
2023-01-10T16:48:29.411Z,5.00
2023-01-10T16:51:05.989Z,5.00
2023-01-10T16:53:32.759Z,5.00
2023-01-10T16:55:59.539Z,4.90
2023-01-10T16:58:26.262Z,4.80
2023-01-10T17:00:53.226Z,4.80
2023-01-10T17:03:25.598Z,4.80
2023-01-10T17:05:52.646Z,4.80
2023-01-10T17:08:22.950Z,4.70
2023-01-10T17:10:56.217Z,4.70
2023-01-10T17:13:27.484Z,4.70
2023-01-10T17:15:54.244Z,4.70
2023-01-10T17:18:21.216Z,4.70
2023-01-10T17:20:47.886Z,4.60
2023-01-10T17:23:15.688Z,4.60
2023-01-10T17:25:42.750Z,4.60
2023-01-10T17:28:12.092Z,4.60
2023-01-10T17:30:43.611Z,4.60
2023-01-10T17:33:13.120Z,4.60
2023-01-10T17:35:44.626Z,4.60
2023-01-10T17:38:13.596Z,4.60
2023-01-10T17:40:41.926Z,4.60
2023-01-10T17:43:10.809Z,4.60
2023-01-10T17:45:41.488Z,4.60
2023-01-10T17:48:09.214Z,4.60
2023-01-10T17:50:36.612Z,4.60
2023-01-10T17:53:03.330Z,4.70
2023-01-10T17:55:30.054Z,4.70
2023-01-10T17:57:57.105Z,4.70
2023-01-10T18:00:24.043Z,4.70
2023-01-10T18:02:51.110Z,4.80
2023-01-10T18:05:18.119Z,4.70
2023-01-10T18:07:44.983Z,4.80
2023-01-10T18:10:12.232Z,4.90
2023-01-10T18:12:41.864Z,4.80
2023-01-10T18:15:09.094Z,4.90
2023-01-10T18:17:35.845Z,5.00
2023-01-10T18:20:03.163Z,5.00
2023-01-10T18:22:48.565Z,5.10
2023-01-10T18:25:17.437Z,5.10
2023-01-10T18:27:50.067Z,5.20
2023-01-10T18:30:22.157Z,5.20
2023-01-10T18:32:50.199Z,5.20
2023-01-10T18:35:17.299Z,5.20
2023-01-10T18:37:46.768Z,5.20
2023-01-10T18:40:14.300Z,5.20
2023-01-10T18:42:41.462Z,5.20
2023-01-10T18:45:08.896Z,5.30
2023-01-10T18:47:35.668Z,5.20
2023-01-10T18:50:02.407Z,5.20
2023-01-10T18:52:29.179Z,5.20
2023-01-10T18:54:55.928Z,5.30
2023-01-10T18:57:24.104Z,5.40
2023-01-10T18:59:50.877Z,5.50
2023-01-10T19:02:17.734Z,5.50
2023-01-10T19:04:44.822Z,5.50
2023-01-10T19:07:11.540Z,5.50
2023-01-10T19:09:38.317Z,5.50
2023-01-10T19:12:05.243Z,5.50
2023-01-10T19:14:32.027Z,5.50
2023-01-10T19:16:58.833Z,5.50
2023-01-10T19:19:25.603Z,5.50
2023-01-10T19:21:52.365Z,5.60
2023-01-10T19:24:23.470Z,5.70
2023-01-10T19:26:51.573Z,5.60
2023-01-10T19:29:18.542Z,5.60
2023-01-10T19:31:48.145Z,5.70
2023-01-10T19:34:15.068Z,5.70
2023-01-10T19:36:42.526Z,5.70
2023-01-10T19:39:09.990Z,5.70
2023-01-10T19:41:37.886Z,5.70
2023-01-10T19:44:16.326Z,5.70
2023-01-10T19:46:45.349Z,5.60
2023-01-10T19:49:17.638Z,5.70
2023-01-10T19:51:47.733Z,5.70
2023-01-10T19:54:14.767Z,5.60
2023-01-10T19:56:41.522Z,5.60
2023-01-10T19:59:08.544Z,5.60
2023-01-10T20:01:35.933Z,5.70
2023-01-10T20:04:06.392Z,5.70
2023-01-10T20:06:37.699Z,5.70
2023-01-10T20:09:05.269Z,5.70
2023-01-10T20:11:37.863Z,5.70
2023-01-10T20:14:19.572Z,5.70
2023-01-10T20:16:47.643Z,5.70
2023-01-10T20:19:15.276Z,5.80
2023-01-10T20:21:42.933Z,5.80
2023-01-10T20:24:16.770Z,5.80
2023-01-10T20:26:45.152Z,5.80
2023-01-10T20:29:12.605Z,5.80
2023-01-10T20:31:39.706Z,5.80
2023-01-10T20:34:06.483Z,5.90
2023-01-10T20:36:33.324Z,6.00
2023-01-10T20:39:00.349Z,6.00
2023-01-10T20:41:29.738Z,6.00
2023-01-10T20:43:57.710Z,6.00
2023-01-10T20:46:31.767Z,6.00
2023-01-10T20:49:02.195Z,6.00
2023-01-10T20:51:32.041Z,6.00
2023-01-10T20:53:59.544Z,6.00
2023-01-10T20:56:29.117Z,6.00
2023-01-10T20:58:56.265Z,6.00
2023-01-10T21:01:34.203Z,6.00
2023-01-10T21:04:01.726Z,6.00
2023-01-10T21:06:28.529Z,5.90
2023-01-10T21:08:55.419Z,6.00
2023-01-10T21:11:22.152Z,6.00
2023-01-10T21:13:49.013Z,6.10
2023-01-10T21:16:19.352Z,6.30
2023-01-10T21:18:46.755Z,6.30
2023-01-10T21:21:19.141Z,6.30
2023-01-10T21:23:45.921Z,6.40
2023-01-10T21:26:14.574Z,6.40
2023-01-10T21:28:46.430Z,6.40
2023-01-10T21:31:21.171Z,6.40
2023-01-10T21:33:49.339Z,6.40
2023-01-10T21:36:16.706Z,6.40
2023-01-10T21:38:44.225Z,6.40
2023-01-10T21:41:14.707Z,6.50
2023-01-10T21:43:45.310Z,6.60
2023-01-10T21:46:12.089Z,6.60
2023-01-10T21:48:39.099Z,6.60
2023-01-10T21:51:05.974Z,6.60
2023-01-10T21:53:32.787Z,6.60
2023-01-10T21:56:02.262Z,6.60
2023-01-10T21:58:28.955Z,6.50
2023-01-10T22:00:59.225Z,6.50
2023-01-10T22:03:26.326Z,6.60
2023-01-10T22:05:53.718Z,6.50
2023-01-10T22:08:20.489Z,6.50
2023-01-10T22:10:47.438Z,6.50
2023-01-10T22:13:14.253Z,6.50
2023-01-10T22:15:41.356Z,6.50
2023-01-10T22:18:08.967Z,6.30
2023-01-10T22:20:35.988Z,6.40
2023-01-10T22:23:02.720Z,6.40
2023-01-10T22:25:29.451Z,6.40
2023-01-10T22:27:56.143Z,6.40
2023-01-10T22:30:22.993Z,6.40
2023-01-10T22:32:49.785Z,6.40
2023-01-10T22:35:16.635Z,6.40
2023-01-10T22:37:43.355Z,6.30
2023-01-10T22:40:10.865Z,6.30
2023-01-10T22:42:37.676Z,6.10
2023-01-10T22:45:04.809Z,6.20
2023-01-10T22:47:31.645Z,6.20
2023-01-10T22:49:58.344Z,6.10
2023-01-10T22:52:25.031Z,6.20
2023-01-10T22:54:51.785Z,6.00
2023-01-10T22:57:18.525Z,6.00
2023-01-10T22:59:45.383Z,5.90
2023-01-10T23:02:12.173Z,6.00
2023-01-10T23:04:38.980Z,6.10
2023-01-10T23:07:05.737Z,6.10
2023-01-10T23:09:32.454Z,6.10
2023-01-10T23:11:59.218Z,6.10
2023-01-10T23:14:26.071Z,6.00
2023-01-10T23:16:52.896Z,6.10
2023-01-10T23:19:19.697Z,6.10
2023-01-10T23:21:46.446Z,6.10
2023-01-10T23:24:15.183Z,6.10
2023-01-10T23:26:41.857Z,6.00
2023-01-10T23:29:08.699Z,6.00
2023-01-10T23:31:35.539Z,6.10
2023-01-10T23:34:02.276Z,6.10
2023-01-10T23:36:29.021Z,6.10
2023-01-10T23:38:55.830Z,6.20
2023-01-10T23:41:23.154Z,6.30
2023-01-10T23:43:51.021Z,6.30
2023-01-10T23:46:18.141Z,6.30
2023-01-10T23:48:46.462Z,6.30
2023-01-10T23:51:13.625Z,6.30
2023-01-10T23:53:41.374Z,6.30
2023-01-10T23:56:11.060Z,6.30
2023-01-10T23:58:37.947Z,6.30
